KISW/ISW METAR and TAF weather

Enter ICAO airport designator
Station Type Date Time Source
KISW METAR 2021/09/28 04:54 UTC NOAA

KISW 280454Z AUTO 00000KT 10SM CLR 11/08 A2998 RMK AO2 SLP150 T01060083


Station Type Date Time Source
KISW Decoded METAR 2021/09/28 04:54 UTC NOAA

WI RAPIDS ALEXANDER FIELD, WI, United States (KISW) 44-22N 89-50W 307M
Sep 28, 2021 - 12:54 AM EDT / 2021.09.28 0454 UTC
Wind: Calm:0
Visibility: 10 mile(s):0
Sky conditions: clear
Temperature: 51.1 F (10.6 C)
Dew Point: 46.9 F (8.3 C)
Relative Humidity: 85%
Pressure (altimeter): 29.98 in. Hg (1015 hPa)
ob: KISW 280454Z AUTO 00000KT 10SM CLR 11/08 A2998 RMK AO2 SLP150 T01060083
cycle: 5

Station Type Date Time Source
KISW TAF UTC NOAA

Error!

Example: see airport list